createdAt,value
2023-05-16T00:05:41.799Z,6
2023-05-16T00:15:47.295Z,3
2023-05-16T00:25:52.741Z,4
2023-05-16T00:35:58.503Z,7
2023-05-16T00:46:03.670Z,5
2023-05-16T00:56:10.056Z,8
2023-05-16T01:06:14.457Z,4
2023-05-16T01:16:19.773Z,6
2023-05-16T01:26:25.396Z,6
2023-05-16T01:36:31.146Z,6
2023-05-16T01:46:37.883Z,7
2023-05-16T01:56:45.158Z,4
2023-05-16T02:06:51.421Z,6
2023-05-16T02:16:58.847Z,4
2023-05-16T02:27:03.519Z,4
2023-05-16T02:37:11.859Z,7
2023-05-16T02:47:17.819Z,4
2023-05-16T02:57:23.242Z,6
2023-05-16T03:07:29.796Z,4
2023-05-16T03:17:36.326Z,7
2023-05-16T03:27:42.121Z,5
2023-05-16T03:37:48.939Z,6
2023-05-16T03:47:55.787Z,7
2023-05-16T03:58:02.161Z,5
2023-05-16T04:08:10.625Z,7
2023-05-16T04:18:15.876Z,6
2023-05-16T04:28:22.229Z,6
2023-05-16T04:38:27.832Z,7
2023-05-16T04:48:34.624Z,11
2023-05-16T04:58:41.046Z,5
2023-05-16T05:08:44.941Z,39
2023-05-16T05:18:51.245Z,5
2023-05-16T05:29:05.005Z,6
2023-05-16T05:39:03.109Z,8
2023-05-16T05:49:08.829Z,7
2023-05-16T05:59:14.136Z,5
2023-05-16T06:09:20.294Z,7
2023-05-16T06:19:26.493Z,8
2023-05-16T06:29:30.975Z,6
2023-05-16T06:39:37.456Z,7
2023-05-16T06:49:43.098Z,8
2023-05-16T06:59:49.254Z,8
2023-05-16T07:09:55.116Z,6
2023-05-16T07:20:03.629Z,7
2023-05-16T07:30:07.055Z,8
2023-05-16T07:40:13.797Z,9
2023-05-16T07:50:20.803Z,11
2023-05-16T08:00:27.089Z,8
2023-05-16T08:10:33.478Z,9
2023-05-16T08:20:38.682Z,8
2023-05-16T08:30:47.227Z,11
2023-05-16T08:40:53.553Z,16
2023-05-16T08:50:59.181Z,18
2023-05-16T09:01:05.850Z,21
2023-05-16T09:11:12.419Z,23
2023-05-16T09:21:19.641Z,28
2023-05-16T09:31:28.046Z,26
2023-05-16T09:41:34.285Z,28
2023-05-16T09:51:43.742Z,31
2023-05-16T10:01:48.156Z,35
2023-05-16T10:11:55.130Z,31
2023-05-16T10:22:00.948Z,20
2023-05-16T10:32:08.290Z,23
2023-05-16T10:42:15.219Z,21
2023-05-16T10:52:22.537Z,30
2023-05-16T11:02:30.340Z,31
2023-05-16T11:12:36.391Z,29
2023-05-16T11:22:43.038Z,29
2023-05-16T11:32:51.761Z,25
2023-05-16T11:42:59.504Z,23
2023-05-16T11:53:06.200Z,24
2023-05-16T12:03:13.961Z,24
2023-05-16T12:13:20.587Z,26
2023-05-16T12:23:26.666Z,28
2023-05-16T12:33:38.474Z,23
2023-05-16T12:43:41.077Z,28
2023-05-16T12:54:01.915Z,28
2023-05-16T13:04:06.672Z,26
2023-05-16T13:14:22.345Z,27
2023-05-16T13:24:15.154Z,25
2023-05-16T13:34:18.486Z,27
2023-05-16T13:44:24.395Z,28
2023-05-16T13:54:30.361Z,23
2023-05-16T14:04:39.804Z,18
2023-05-16T14:14:44.243Z,17
2023-05-16T14:24:50.362Z,17
2023-05-16T14:34:58.273Z,14
2023-05-16T14:45:05.775Z,15
2023-05-16T14:55:12.789Z,19
2023-05-16T15:05:18.242Z,27
2023-05-16T15:15:23.240Z,25
2023-05-16T15:25:29.928Z,15
2023-05-16T15:35:36.503Z,15
2023-05-16T15:46:03.383Z,20
2023-05-16T15:56:10.448Z,19
2023-05-16T16:06:15.767Z,14
2023-05-16T16:16:23.601Z,15
2023-05-16T16:26:29.195Z,12
2023-05-16T16:36:34.260Z,15
2023-05-16T16:46:40.771Z,14
2023-05-16T16:56:45.471Z,14
2023-05-16T17:06:51.165Z,16
2023-05-16T17:16:57.087Z,12
2023-05-16T17:27:04.104Z,11
2023-05-16T17:37:10.993Z,16
2023-05-16T17:47:17.646Z,14
2023-05-16T17:57:24.182Z,14
2023-05-16T18:07:29.849Z,17
2023-05-16T18:17:36.161Z,20
2023-05-16T18:27:42.528Z,21
2023-05-16T18:37:48.125Z,15
2023-05-16T18:47:54.138Z,25
2023-05-16T18:58:00.559Z,21
2023-05-16T19:08:06.064Z,20
2023-05-16T19:18:12.524Z,19
2023-05-16T19:28:15.944Z,21
2023-05-16T19:38:21.814Z,16
2023-05-16T19:48:28.105Z,17
2023-05-16T19:58:34.231Z,18
2023-05-16T20:08:41.475Z,19
2023-05-16T20:18:49.146Z,21
2023-05-16T20:28:55.184Z,11
2023-05-16T20:39:01.398Z,15
2023-05-16T20:49:08.952Z,16
2023-05-16T20:59:15.305Z,14
2023-05-16T21:09:22.636Z,17
2023-05-16T21:19:31.011Z,15
2023-05-16T21:29:41.978Z,15
2023-05-16T21:39:40.331Z,16
2023-05-16T21:49:47.074Z,14
2023-05-16T21:59:51.355Z,16
2023-05-16T22:09:57.914Z,14
2023-05-16T22:20:04.745Z,17
2023-05-16T22:30:08.915Z,13
2023-05-16T22:40:15.994Z,13
2023-05-16T22:50:21.482Z,11
2023-05-16T23:00:27.476Z,13
2023-05-16T23:10:34.126Z,19
2023-05-16T23:20:41.072Z,37
2023-05-16T23:30:47.250Z,35
2023-05-16T23:40:52.743Z,27
2023-05-16T23:50:59.556Z,39
